Kezdőlap
METAR-TAF:

METAR-TAF

Repülőterek :

Worthington Municipal Airport

Worthington, Minnesota, Amerikai Egyesült Államok

földrajzi szélesség: 43-39N, földrajzi hosszúság: 095-35W, magasság: 480 m

Jelenlegi meteorológiai megfigyelések

A jelentés 52 perccel ezelõtt készült, 14:56 UTC
Dél-délkeleti szél 6 kt
Hőmérséklet -17°C
Páratartalom 84%
Légköri nyomás 1017 hPa
Látótávolság: 16.1 km
Borult 11000 lábon

METAR: KOTG 151456Z AUTO 16006KT 10SM OVC110 M17/M19 A3003 RMK AO2 SLP215 T11671189 55000 FZRANO

Idő: 09:48 (15:48 UTC)


TAF: hiányzik

Meteorológiai megfigyelések és előrejelzések több, mint 4000 repülőtéren (METAR és TAF jelentéseket).

A térképen piros és sárga pontok jelzik az elérhető meteorológiai állomásokat.

Mozgassa az egeret a pont fölött, hogy megjelenjen az állomás neve.

Azután kattintson az időjárási megfigyelések és előrejelzések megtekintéséhez.

A térkép megváltoztatása: kattintson a fekete keresztel jelölt zöld gombra ráközelítéshez, a vonallal jelölt zöld gombra távolításhoz, vagy a zöld nyilakra a szomszédos térképek eléréséhez.


METAR-TAF: